Time;durP1;ratioP1;P1;durP2;ratioP2;P2;SDS_P1;SDS_P2;PMS_P1;PMS_P2;Temp;Humidity;BMP_temperature;BMP_pressure;BME280_temperature;BME280_humidity;BME280_pressure;Samples;Min_cycle;Max_cycle;Signal;HPM_P1;HPM_P2
2023/01/17 00:01:14;;;;;;;1.15;1.15;;;;;;;3.78;86.39;95191.38;5041329;28;20060;-80
2023/01/17 00:12:11;;;;;;;1.98;1.88;;;;;;;3.69;86.42;95216.88;5038810;28;20047;-81
2023/01/17 00:14:36;;;;;;;2.13;1.48;;;;;;;3.66;86.36;95203.50;5058305;28;20396;-80
2023/01/17 00:17:02;;;;;;;1.33;1.30;;;;;;;3.68;86.53;95212.69;5044401;28;20037;-81
2023/01/17 01:34:03;;;;;;;1.88;1.40;;;;;;;3.31;85.68;95322.75;5038421;28;20058;-81
2023/01/17 01:36:28;;;;;;;1.65;1.20;;;;;;;3.30;86.34;95335.13;5054202;28;20033;-81
2023/01/17 01:38:55;;;;;;;2.08;1.85;;;;;;;3.40;85.74;95329.72;5053513;28;20029;-81
2023/01/17 01:41:21;;;;;;;1.55;1.40;;;;;;;3.17;85.99;95327.97;5045340;28;20438;-81
2023/01/17 01:43:49;;;;;;;1.40;1.20;;;;;;;3.48;85.88;95346.72;5062935;28;20024;-81
2023/01/17 01:46:38;;;;;;;1.30;1.20;;;;;;;3.43;85.80;95329.13;5055041;28;20511;-81
2023/01/17 01:49:23;;;;;;;1.02;0.93;;;;;;;3.41;85.57;95346.28;5055320;28;20109;-81
2023/01/17 01:51:57;;;;;;;1.23;1.13;;;;;;;3.34;85.95;95333.47;5036909;28;20037;-81
2023/01/17 01:54:32;;;;;;;1.00;1.00;;;;;;;3.23;85.83;95339.22;5039485;28;20029;-80
2023/01/17 01:57:01;;;;;;;0.90;0.90;;;;;;;3.37;85.55;95347.94;5024772;28;20512;-81
2023/01/17 01:59:29;;;;;;;1.30;1.20;;;;;;;3.39;85.33;95367.66;5058366;28;20095;-81
2023/01/17 02:01:56;;;;;;;3.08;1.17;;;;;;;3.42;85.28;95361.03;5037969;28;20032;-81
2023/01/17 02:04:24;;;;;;;2.30;0.93;;;;;;;3.25;85.49;95372.13;5055356;28;20039;-81
2023/01/17 02:06:59;;;;;;;1.25;1.17;;;;;;;3.39;85.41;95377.44;5025528;28;20158;-81
2023/01/17 02:09:25;;;;;;;1.20;1.20;;;;;;;3.49;84.88;95391.25;5026751;28;20025;-81
2023/01/17 02:11:51;;;;;;;0.95;0.95;;;;;;;3.51;85.08;95393.59;5055669;28;20020;-81
2023/01/17 02:14:19;;;;;;;0.80;0.80;;;;;;;3.43;85.31;95412.72;5030006;28;20141;-81
2023/01/17 02:16:59;;;;;;;1.02;1.02;;;;;;;3.50;85.33;95407.81;5040334;28;20430;-81
2023/01/17 02:19:49;;;;;;;0.63;0.63;;;;;;;3.51;85.37;95417.31;5059758;28;20063;-81
2023/01/17 02:22:33;;;;;;;1.00;0.90;;;;;;;3.39;85.38;95416.97;5050602;28;20499;-81
2023/01/17 02:25:22;;;;;;;1.27;0.93;;;;;;;3.25;85.53;95408.22;5052195;28;20384;-81
2023/01/17 02:28:06;;;;;;;0.65;0.65;;;;;;;3.51;84.82;95406.78;5058240;28;20036;-81
2023/01/17 02:30:34;;;;;;;0.98;0.80;;;;;;;3.53;84.75;95408.06;5055425;28;20399;-81
2023/01/17 02:33:09;;;;;;;0.80;0.80;;;;;;;3.49;84.72;95412.34;5021605;28;20090;-81
2023/01/17 02:35:51;;;;;;;0.90;0.90;;;;;;;3.46;84.86;95402.34;5058340;28;20040;-81
2023/01/17 02:38:35;;;;;;;0.98;0.98;;;;;;;3.41;85.50;95418.25;5040352;28;20016;-81
2023/01/17 02:41:06;;;;;;;0.80;0.80;;;;;;;3.44;85.60;95407.13;5042207;28;20480;-81
2023/01/17 02:43:33;;;;;;;0.90;0.90;;;;;;;3.46;85.68;95420.81;5055728;28;20051;-82
2023/01/17 02:45:58;;;;;;;0.90;0.90;;;;;;;3.57;85.26;95426.69;5054616;28;20126;-81
2023/01/17 02:48:27;;;;;;;0.80;0.80;;;;;;;3.40;85.89;95415.91;5049602;28;20507;-81
2023/01/17 02:51:17;;;;;;;0.80;0.80;;;;;;;3.50;85.38;95426.28;5036588;28;20033;-81
2023/01/17 02:54:30;;;;;;;1.48;1.10;;;;;;;3.41;85.29;95410.34;5042645;28;20060;-81
2023/01/17 02:57:32;;;;;;;0.98;0.98;;;;;;;3.45;85.67;95429.00;5023921;28;20045;-81
2023/01/17 03:00:22;;;;;;;1.00;1.00;;;;;;;3.47;85.34;95421.59;5049983;28;20024;-82
2023/01/17 03:02:59;;;;;;;0.85;0.85;;;;;;;3.38;85.48;95426.75;5055144;28;20044;-81
2023/01/17 03:05:25;;;;;;;1.10;1.10;;;;;;;3.40;85.68;95429.88;5038099;28;20029;-80
2023/01/17 03:07:52;;;;;;;1.30;1.17;;;;;;;3.32;85.44;95414.69;5039585;28;20395;-81
2023/01/17 03:10:19;;;;;;;1.20;1.15;;;;;;;3.41;85.63;95428.00;5068144;28;20028;-81
2023/01/17 03:12:44;;;;;;;1.40;1.30;;;;;;;3.43;85.12;95424.00;5053856;28;20042;-81
2023/01/17 03:15:13;;;;;;;1.15;1.05;;;;;;;3.35;85.77;95427.31;5038144;28;20075;-81
2023/01/17 03:17:43;;;;;;;1.42;1.27;;;;;;;3.38;85.32;95425.94;5024633;28;20029;-81
2023/01/17 03:20:09;;;;;;;1.50;1.40;;;;;;;3.33;85.66;95434.72;5038052;28;20044;-81
2023/01/17 03:22:34;;;;;;;1.48;1.25;;;;;;;3.28;85.51;95445.31;5056091;28;20396;-81
2023/01/17 03:25:00;;;;;;;1.23;1.23;;;;;;;3.34;85.67;95435.50;5038020;28;20537;-81
2023/01/17 03:27:25;;;;;;;1.05;1.05;;;;;;;3.28;85.19;95445.31;5037529;28;20021;-81
2023/01/17 03:29:50;;;;;;;2.03;1.48;;;;;;;3.46;85.25;95451.66;5054216;28;20028;-81
2023/01/17 03:32:16;;;;;;;1.15;1.15;;;;;;;3.49;85.23;95459.00;5045072;28;20087;-81
2023/01/17 03:34:41;;;;;;;1.10;1.10;;;;;;;3.30;85.25;95437.16;5055949;28;20032;-81
2023/01/17 03:37:07;;;;;;;1.50;1.40;;;;;;;3.45;84.65;95452.75;5040129;28;20048;-81
2023/01/17 03:39:32;;;;;;;1.40;1.30;;;;;;;3.21;85.03;95457.28;5014673;28;20064;-80
2023/01/17 03:41:57;;;;;;;1.27;1.20;;;;;;;3.41;84.50;95467.53;5052220;28;20065;-81
2023/01/17 03:44:23;;;;;;;1.17;1.10;;;;;;;3.24;84.32;95469.88;5024976;28;20047;-81
2023/01/17 03:46:48;;;;;;;1.92;1.13;;;;;;;3.42;84.81;95461.19;5041093;28;20183;-81
2023/01/17 03:49:15;;;;;;;1.38;1.27;;;;;;;3.29;85.52;95477.72;5024234;28;20032;-80
2023/01/17 03:51:40;;;;;;;0.93;0.93;;;;;;;3.21;84.94;95478.38;5054856;28;20094;-80
2023/01/17 03:54:06;;;;;;;0.60;0.60;;;;;;;3.26;83.93;95475.66;5041466;28;20048;-81
2023/01/17 03:56:31;;;;;;;1.10;1.00;;;;;;;3.35;84.20;95487.91;5040827;28;20036;-80
2023/01/17 03:58:57;;;;;;;0.82;0.82;;;;;;;3.30;84.24;95489.84;5040058;28;20025;-81
2023/01/17 04:01:23;;;;;;;1.10;1.10;;;;;;;3.22;84.59;95485.19;5025170;28;20040;-80
2023/01/17 04:03:48;;;;;;;1.17;1.08;;;;;;;3.29;84.57;95488.28;5040541;28;20028;-80
2023/01/17 04:06:13;;;;;;;1.25;1.05;;;;;;;3.13;84.15;95503.50;5024986;28;20067;-80
2023/01/17 04:08:39;;;;;;;1.20;1.10;;;;;;;3.29;84.30;95510.16;5060811;28;20396;-81
2023/01/17 04:11:04;;;;;;;0.82;0.82;;;;;;;3.27;84.31;95493.03;5041947;28;20449;-80
2023/01/17 04:13:30;;;;;;;1.73;1.45;;;;;;;3.31;84.97;95504.59;5034627;28;20035;-80
2023/01/17 04:15:55;;;;;;;1.40;1.30;;;;;;;3.24;84.50;95496.22;5043725;28;20108;-80
2023/01/17 04:18:22;;;;;;;1.23;1.08;;;;;;;3.32;83.92;95509.56;5054016;28;20036;-80
2023/01/17 04:20:48;;;;;;;2.50;1.40;;;;;;;3.19;84.63;95502.34;5032013;28;20059;-81
2023/01/17 04:23:13;;;;;;;1.90;1.20;;;;;;;3.31;84.55;95513.28;5060023;28;20115;-81
2023/01/17 04:25:38;;;;;;;1.02;0.95;;;;;;;3.27;84.69;95516.75;5043143;28;20033;-80
2023/01/17 04:28:04;;;;;;;0.88;0.80;;;;;;;3.16;84.66;95520.59;5039986;28;20044;-81
2023/01/17 04:30:31;;;;;;;1.98;1.45;;;;;;;3.12;84.59;95525.66;5030448;28;20099;-81
2023/01/17 04:32:56;;;;;;;1.27;1.17;;;;;;;3.18;84.79;95531.63;5065081;28;20488;-81
2023/01/17 04:35:23;;;;;;;1.05;1.00;;;;;;;3.01;84.37;95517.06;5060636;28;20039;-81
2023/01/17 04:37:48;;;;;;;1.45;1.35;;;;;;;3.09;84.85;95535.94;5043242;28;20690;-81
2023/01/17 04:40:14;;;;;;;1.33;1.23;;;;;;;3.14;84.85;95543.81;5061745;28;20106;-80
2023/01/17 04:42:39;;;;;;;1.35;1.25;;;;;;;2.96;84.88;95540.06;5060845;28;20037;-80
2023/01/17 04:45:05;;;;;;;1.20;1.20;;;;;;;3.00;84.81;95552.38;5060201;28;20086;-80
2023/01/17 04:47:33;;;;;;;1.52;1.42;;;;;;;3.01;84.70;95542.66;5064924;28;20047;-80
2023/01/17 04:49:58;;;;;;;1.08;1.00;;;;;;;3.12;84.23;95551.22;5037062;28;20063;-80
2023/01/17 04:52:24;;;;;;;1.10;0.90;;;;;;;2.91;84.22;95548.81;5058899;28;20060;-80
2023/01/17 04:54:50;;;;;;;1.33;1.23;;;;;;;3.05;84.19;95559.44;5034826;28;20036;-80
2023/01/17 04:57:18;;;;;;;0.77;0.77;;;;;;;2.96;84.79;95559.28;5055974;28;20025;-80
2023/01/17 04:59:45;;;;;;;1.40;1.30;;;;;;;2.90;85.22;95546.47;5044894;28;20430;-80
2023/01/17 05:02:11;;;;;;;1.10;1.00;;;;;;;2.87;84.80;95557.53;5053771;28;20088;-81
2023/01/17 05:04:36;;;;;;;1.08;1.05;;;;;;;2.86;85.01;95569.16;5042279;28;20120;-82
2023/01/17 05:07:02;;;;;;;1.17;1.00;;;;;;;2.82;84.87;95583.91;5025413;28;20112;-81
2023/01/17 05:09:27;;;;;;;1.13;1.02;;;;;;;2.87;85.31;95570.72;5064804;28;20055;-81
2023/01/17 05:11:54;;;;;;;1.17;0.98;;;;;;;3.03;85.09;95588.72;5044286;28;20492;-81
2023/01/17 05:14:20;;;;;;;1.10;1.00;;;;;;;3.01;84.55;95592.69;5058319;28;20064;-81
2023/01/17 05:16:45;;;;;;;0.98;0.90;;;;;;;2.91;85.18;95590.94;5059717;28;20071;-81
2023/01/17 05:19:11;;;;;;;0.68;0.68;;;;;;;2.88;85.38;95602.03;5041484;28;20029;-81
2023/01/17 05:21:36;;;;;;;1.30;1.20;;;;;;;2.74;85.48;95592.44;5048937;28;20068;-81
2023/01/17 05:24:01;;;;;;;1.20;1.10;;;;;;;2.66;85.96;95593.03;5059119;28;20047;-82
2023/01/17 05:26:27;;;;;;;1.50;1.30;;;;;;;2.84;85.61;95618.69;5068931;28;20032;-81
2023/01/17 05:28:52;;;;;;;1.10;1.00;;;;;;;2.71;85.64;95614.84;5051777;28;20025;-81
2023/01/17 05:31:17;;;;;;;0.45;0.45;;;;;;;2.79;85.52;95627.41;5043668;28;20055;-81
2023/01/17 05:33:43;;;;;;;3.78;1.17;;;;;;;2.79;85.26;95632.69;5045143;28;20052;-81
2023/01/17 05:36:08;;;;;;;1.40;1.30;;;;;;;2.75;85.95;95644.03;5049933;28;20050;-81
2023/01/17 05:38:34;;;;;;;0.63;0.63;;;;;;;2.76;85.33;95645.59;5055878;28;20036;-81
2023/01/17 05:41:00;;;;;;;1.73;0.88;;;;;;;2.78;85.30;95648.75;5062551;28;20035;-81
2023/01/17 05:43:26;;;;;;;0.93;0.93;;;;;;;2.90;84.74;95654.44;5059140;28;20043;-82
2023/01/17 05:45:51;;;;;;;1.25;1.10;;;;;;;2.84;84.76;95648.41;5034553;28;20029;-81
2023/01/17 05:48:17;;;;;;;1.13;1.02;;;;;;;2.83;84.80;95656.59;5062424;28;20032;-81
2023/01/17 05:50:42;;;;;;;0.73;0.73;;;;;;;2.63;85.36;95649.66;5064631;28;20052;-81
2023/01/17 05:53:10;;;;;;;1.00;1.00;;;;;;;2.69;85.25;95672.25;5059708;28;20032;-81
2023/01/17 05:55:37;;;;;;;0.98;0.98;;;;;;;2.82;84.84;95674.25;5052444;28;20033;-81
2023/01/17 05:58:04;;;;;;;0.73;0.38;;;;;;;2.78;84.47;95685.59;5059586;28;20040;-81
2023/01/17 06:00:30;;;;;;;1.30;1.20;;;;;;;2.73;84.43;95680.41;5046034;28;20041;-81
2023/01/17 06:02:57;;;;;;;2.50;1.42;;;;;;;2.75;84.59;95689.56;5042690;28;22013;-80
2023/01/17 06:05:24;;;;;;;1.45;1.35;;;;;;;2.75;84.58;95701.97;5032732;28;20122;-81
2023/01/17 06:07:50;;;;;;;1.08;1.08;;;;;;;2.78;84.36;95696.94;5041446;28;20033;-81
2023/01/17 06:10:17;;;;;;;1.25;1.17;;;;;;;2.86;84.16;95701.59;5037759;28;20545;-81
2023/01/17 06:12:44;;;;;;;0.68;0.68;;;;;;;2.72;84.41;95713.03;5048292;28;20039;-81
2023/01/17 06:15:10;;;;;;;0.80;0.57;;;;;;;2.65;84.13;95718.63;5041700;28;20032;-80
2023/01/17 06:17:36;;;;;;;0.88;0.88;;;;;;;2.59;84.66;95713.66;5070919;28;20033;-81
2023/01/17 06:20:03;;;;;;;0.70;0.70;;;;;;;2.56;84.17;95717.63;5079300;28;20056;-81
2023/01/17 06:22:29;;;;;;;0.90;0.90;;;;;;;2.57;84.47;95715.78;5042410;28;20032;-81
2023/01/17 06:24:54;;;;;;;2.38;1.58;;;;;;;2.62;84.37;95727.06;5043740;28;20029;-81
2023/01/17 06:27:20;;;;;;;0.90;0.85;;;;;;;2.57;84.54;95740.28;5040393;28;20500;-81
2023/01/17 06:29:45;;;;;;;3.08;0.65;;;;;;;2.48;84.37;95741.13;5041352;28;20024;-81
2023/01/17 06:32:12;;;;;;;1.65;0.90;;;;;;;2.57;84.33;95726.31;5025321;28;20032;-81
2023/01/17 06:34:38;;;;;;;0.77;0.77;;;;;;;2.30;85.15;95747.81;5055253;28;20168;-81
2023/01/17 06:37:04;;;;;;;0.70;0.70;;;;;;;2.43;85.06;95752.47;5065494;28;20119;-81
2023/01/17 06:39:29;;;;;;;0.50;0.45;;;;;;;2.47;84.73;95764.00;5037818;28;20495;-81
2023/01/17 06:41:54;;;;;;;0.55;0.52;;;;;;;2.43;84.64;95765.63;5056794;28;20037;-81
2023/01/17 06:44:20;;;;;;;0.47;0.47;;;;;;;2.29;84.70;95757.53;5029404;28;20119;-82
2023/01/17 06:46:46;;;;;;;1.00;0.57;;;;;;;2.35;85.12;95755.69;5041223;28;20166;-82
2023/01/17 06:49:12;;;;;;;0.95;0.70;;;;;;;2.39;84.22;95761.97;5055139;28;20278;-82
2023/01/17 06:51:37;;;;;;;0.50;0.50;;;;;;;2.43;84.96;95778.78;5042120;28;20048;-82
2023/01/17 06:54:03;;;;;;;0.57;0.57;;;;;;;2.44;84.83;95790.91;5042876;28;20039;-82
2023/01/17 06:56:32;;;;;;;0.47;0.47;;;;;;;2.05;83.79;95774.25;5058522;28;20029;-82
2023/01/17 06:58:58;;;;;;;0.38;0.38;;;;;;;2.42;84.50;95805.38;5080683;28;20051;-82
2023/01/17 07:01:25;;;;;;;0.40;0.40;;;;;;;2.47;84.24;95808.75;5057106;28;20032;-82
2023/01/17 07:03:51;;;;;;;0.50;0.50;;;;;;;2.45;84.38;95805.59;5063882;28;20025;-81
2023/01/17 07:06:17;;;;;;;0.38;0.38;;;;;;;2.44;84.02;95809.31;5044220;28;20029;-82
2023/01/17 07:08:43;;;;;;;1.65;0.52;;;;;;;2.28;84.56;95816.50;5050844;28;20492;-81
2023/01/17 07:11:09;;;;;;;0.55;0.55;;;;;;;2.31;84.97;95812.53;5063497;28;20047;-82
2023/01/17 07:13:36;;;;;;;0.98;0.98;;;;;;;2.53;84.36;95831.38;5059183;28;20032;-81
2023/01/17 07:16:02;;;;;;;0.45;0.45;;;;;;;2.44;84.47;95819.06;5057071;28;20033;-81
2023/01/17 07:18:27;;;;;;;0.43;0.43;;;;;;;2.40;84.23;95829.34;5059360;28;20021;-81
2023/01/17 07:20:53;;;;;;;0.45;0.40;;;;;;;2.23;84.34;95839.38;5060273;28;20031;-81
2023/01/17 07:23:21;;;;;;;0.52;0.47;;;;;;;2.35;84.61;95846.97;5078444;28;20032;-81
2023/01/17 07:26:05;;;;;;;0.68;0.60;;;;;;;2.23;84.70;95844.66;5049930;28;20032;-81
2023/01/17 07:28:30;;;;;;;0.52;0.45;;;;;;;2.30;84.70;95847.78;5065612;28;20028;-81
2023/01/17 07:30:56;;;;;;;0.73;0.60;;;;;;;2.03;85.61;95863.16;5054305;28;20047;-81
2023/01/17 07:33:24;;;;;;;0.40;0.40;;;;;;;2.29;84.72;95856.75;5043818;28;20032;-81
2023/01/17 07:35:49;;;;;;;0.50;0.50;;;;;;;2.30;84.32;95850.41;5063118;28;20033;-81
2023/01/17 07:38:18;;;;;;;0.50;0.50;;;;;;;2.45;84.29;95876.66;5046047;28;20040;-81
2023/01/17 07:40:44;;;;;;;0.50;0.50;;;;;;;2.45;84.18;95870.63;5065033;28;20033;-81
2023/01/17 07:43:12;;;;;;;0.50;0.50;;;;;;;2.46;84.51;95878.25;5042431;28;20032;-81
2023/01/17 07:45:42;;;;;;;0.55;0.55;;;;;;;2.63;84.10;95885.81;5071104;28;20039;-81
2023/01/17 07:48:07;;;;;;;0.52;0.50;;;;;;;2.48;84.41;95878.78;5052799;28;20480;-81
2023/01/17 07:50:32;;;;;;;0.50;0.50;;;;;;;2.60;83.93;95875.84;5048260;28;20033;-81
2023/01/17 07:52:58;;;;;;;1.05;0.77;;;;;;;2.23;85.17;95865.69;5040735;28;20029;-81
2023/01/17 07:55:23;;;;;;;0.50;0.50;;;;;;;2.50;84.04;95870.59;5045046;28;20492;-82
2023/01/17 07:57:49;;;;;;;0.55;0.55;;;;;;;2.61;83.73;95877.41;5038380;28;20128;-80
2023/01/17 08:00:15;;;;;;;1.25;0.95;;;;;;;2.22;84.70;95875.47;5067509;28;20112;-81
2023/01/17 08:02:41;;;;;;;0.73;0.73;;;;;;;2.47;84.30;95873.78;5052091;28;20051;-81
2023/01/17 08:05:06;;;;;;;0.90;0.90;;;;;;;2.60;83.78;95883.75;5057429;28;20028;-81
2023/01/17 08:07:32;;;;;;;2.38;1.15;;;;;;;2.40;84.42;95865.41;5067303;28;20115;-81
2023/01/17 08:09:57;;;;;;;0.98;0.90;;;;;;;2.63;84.24;95889.25;5077953;28;20020;-81
2023/01/17 08:12:24;;;;;;;0.65;0.65;;;;;;;2.46;84.10;95877.47;5040519;28;20186;-81
2023/01/17 08:14:50;;;;;;;0.85;0.85;;;;;;;2.31;85.10;95890.69;5039202;28;20069;-81
2023/01/17 08:17:17;;;;;;;3.45;1.65;;;;;;;2.57;84.05;95889.53;5068253;28;20040;-80
2023/01/17 08:19:43;;;;;;;6.65;3.92;;;;;;;2.60;83.87;95900.28;5065873;28;20024;-81
2023/01/17 08:22:10;;;;;;;2.30;1.83;;;;;;;2.49;83.81;95876.94;5050489;28;20036;-81
2023/01/17 08:24:36;;;;;;;5.15;1.60;;;;;;;2.61;83.84;95898.47;5066613;28;20040;-81
2023/01/17 08:27:01;;;;;;;2.40;2.20;;;;;;;2.62;83.74;95900.81;5054320;28;20028;-81
2023/01/17 08:29:28;;;;;;;2.10;1.90;;;;;;;2.54;83.45;95893.47;5041209;28;20032;-81
2023/01/17 08:31:53;;;;;;;3.17;2.00;;;;;;;2.55;84.11;95904.81;5057561;28;20032;-81
2023/01/17 08:34:19;;;;;;;3.45;1.70;;;;;;;2.50;84.68;95907.44;5069585;28;20044;-81
2023/01/17 08:36:46;;;;;;;2.28;1.85;;;;;;;2.62;83.90;95927.13;5054444;28;20395;-81
2023/01/17 08:39:12;;;;;;;2.67;1.58;;;;;;;2.71;83.56;95922.13;5061083;28;20444;-81
2023/01/17 08:41:38;;;;;;;3.00;1.73;;;;;;;2.66;83.58;95906.34;5037826;28;20033;-80
2023/01/17 08:44:04;;;;;;;2.38;1.73;;;;;;;2.72;83.41;95916.59;5039736;28;20408;-81
2023/01/17 08:46:29;;;;;;;2.95;2.00;;;;;;;2.64;83.99;95925.06;5044246;28;20036;-80
2023/01/17 08:48:57;;;;;;;7.18;2.78;;;;;;;2.54;84.25;95924.28;5055259;28;20035;-81
2023/01/17 08:51:27;;;;;;;7.75;2.45;;;;;;;2.59;84.29;95922.44;5077901;28;20519;-80
2023/01/17 08:53:54;;;;;;;3.20;2.22;;;;;;;2.64;83.47;95919.00;5050871;28;20085;-80
2023/01/17 08:56:19;;;;;;;5.22;3.38;;;;;;;2.47;85.09;95937.72;5064321;28;20048;-80
2023/01/17 08:58:45;;;;;;;6.28;2.80;;;;;;;2.62;84.50;95937.66;5062703;28;20529;-81
2023/01/17 09:01:10;;;;;;;10.15;4.55;;;;;;;2.48;83.62;95914.84;5054107;28;20039;-80
2023/01/17 09:03:36;;;;;;;8.73;4.00;;;;;;;2.77;83.95;95945.53;5035841;28;20033;-81
2023/01/17 09:06:10;;;;;;;6.30;3.92;;;;;;;2.68;83.66;95939.25;5074448;28;20055;-80
2023/01/17 09:08:36;;;;;;;8.63;3.83;;;;;;;2.76;83.38;95954.47;5046774;28;20024;-80
2023/01/17 09:11:10;;;;;;;8.20;4.35;;;;;;;2.88;83.22;95957.56;5035520;28;20040;-81
2023/01/17 09:13:36;;;;;;;10.35;3.90;;;;;;;2.62;83.41;95953.47;5044535;28;20142;-80
2023/01/17 09:16:02;;;;;;;8.07;3.58;;;;;;;2.71;83.86;95956.34;5041666;28;20093;-81
2023/01/17 09:18:28;;;;;;;7.60;4.03;;;;;;;2.89;83.66;95977.59;5056309;28;20060;-81
2023/01/17 09:20:56;;;;;;;4.85;3.40;;;;;;;3.02;83.36;95971.75;5054008;28;20028;-80
2023/01/17 09:23:22;;;;;;;8.60;3.80;;;;;;;2.87;83.42;95971.03;5049665;28;20034;-80
2023/01/17 09:25:59;;;;;;;8.77;3.63;;;;;;;2.83;83.29;95965.53;5074054;28;20029;-80
2023/01/17 09:28:26;;;;;;;7.38;3.75;;;;;;;2.96;83.54;95983.38;5040098;28;20043;-80
2023/01/17 09:30:52;;;;;;;12.88;5.28;;;;;;;2.80;84.22;95983.69;5062376;28;20070;-80
2023/01/17 09:33:18;;;;;;;7.07;3.88;;;;;;;2.90;84.08;95973.94;5070941;28;20294;-80
2023/01/17 09:35:45;;;;;;;7.97;4.32;;;;;;;3.01;83.49;95980.69;5055730;28;20376;-80
2023/01/17 09:38:11;;;;;;;5.05;3.72;;;;;;;3.02;83.71;95978.84;5080741;28;20028;-80
2023/01/17 09:40:46;;;;;;;8.52;4.20;;;;;;;3.03;83.49;95967.28;5060596;28;20032;-80
2023/01/17 09:43:31;;;;;;;7.93;4.40;;;;;;;2.91;83.64;95967.59;5058221;28;20024;-80
2023/01/17 09:45:57;;;;;;;10.05;4.55;;;;;;;2.91;83.65;95969.41;5069203;28;20016;-80
2023/01/17 09:48:37;;;;;;;5.30;3.70;;;;;;;2.93;84.37;95983.09;5078797;28;20029;-80
2023/01/17 09:51:14;;;;;;;9.85;4.20;;;;;;;2.57;85.54;95982.47;5092849;28;20029;-80
2023/01/17 09:53:42;;;;;;;10.57;5.35;;;;;;;2.98;84.28;95988.38;5052727;28;20525;-80
2023/01/17 09:56:18;;;;;;;9.80;4.63;;;;;;;2.90;84.40;95991.56;5070794;28;20024;-80
2023/01/17 09:58:47;;;;;;;;;;;;;;;3.01;84.09;95991.22;5072665;28;20111;-80
2023/01/17 10:01:24;;;;;;;11.68;5.40;;;;;;;2.75;84.58;95971.31;5072417;28;19914;-80
2023/01/17 10:04:21;;;;;;;7.22;4.05;;;;;;;3.06;83.44;95979.88;5062317;28;20033;-80
2023/01/17 10:07:02;;;;;;;6.32;4.15;;;;;;;2.81;84.25;95988.72;5045075;28;20075;-80
2023/01/17 10:10:05;;;;;;;7.40;3.97;;;;;;;3.17;83.63;95997.22;5054142;28;20455;-80
2023/01/17 10:13:02;;;;;;;6.80;3.80;;;;;;;3.14;83.38;95987.25;5054167;28;20025;-80
2023/01/17 10:15:37;;;;;;;5.00;4.18;;;;;;;3.06;83.65;95989.66;5062282;28;20066;-81
2023/01/17 10:18:25;;;;;;;7.45;3.60;;;;;;;3.13;83.68;95996.19;5049087;28;20031;-81
2023/01/17 10:21:12;;;;;;;5.32;3.60;;;;;;;2.99;84.00;95988.09;5074343;28;20484;-81
2023/01/17 10:23:40;;;;;;;9.85;4.00;;;;;;;3.15;83.96;95993.28;5071648;28;20075;-81
2023/01/17 10:26:33;;;;;;;7.95;3.70;;;;;;;3.13;83.79;95995.41;5055574;28;20398;-80
2023/01/17 10:29:01;;;;;;;5.50;3.20;;;;;;;3.12;83.85;95996.47;5025431;28;20504;-81
2023/01/17 10:31:32;;;;;;;6.03;3.53;;;;;;;3.21;83.45;95992.22;5052718;28;20058;-81
2023/01/17 10:34:11;;;;;;;4.60;3.28;;;;;;;3.04;83.95;95976.72;5053972;28;20032;-80
2023/01/17 10:36:41;;;;;;;6.53;3.70;;;;;;;2.99;83.42;95980.19;5058255;28;20039;-80
2023/01/17 10:39:36;;;;;;;5.30;3.75;;;;;;;2.88;83.79;95989.19;5028476;28;20555;-80
2023/01/17 10:42:36;;;;;;;4.80;3.40;;;;;;;3.00;83.36;95997.56;5031011;28;20047;-80
2023/01/17 10:45:15;;;;;;;4.00;3.55;;;;;;;2.84;84.13;95979.47;5048076;28;20036;-80
2023/01/17 10:47:47;;;;;;;5.82;3.67;;;;;;;2.88;83.63;95978.66;5061495;28;20059;-80
2023/01/17 10:50:12;;;;;;;4.70;3.47;;;;;;;3.00;83.65;95984.41;5070629;28;20036;-80
2023/01/17 10:53:09;;;;;;;7.57;3.35;;;;;;;2.95;83.63;95994.16;5078461;28;20028;-80
2023/01/17 10:55:50;;;;;;;3.45;2.95;;;;;;;3.24;82.73;95995.09;5020244;28;20041;-80
2023/01/17 10:58:15;;;;;;;5.05;3.63;;;;;;;3.16;83.01;95990.41;5069375;28;20055;-80
2023/01/17 11:01:18;;;;;;;5.68;3.78;;;;;;;3.04;84.19;96006.50;5044625;28;20028;-80
2023/01/17 11:03:49;;;;;;;5.57;3.97;;;;;;;2.96;83.37;96017.63;5053467;28;20031;-80
2023/01/17 11:06:18;;;;;;;7.05;3.53;;;;;;;3.37;83.42;96017.41;5063403;28;20495;-80
2023/01/17 11:08:51;;;;;;;4.93;3.40;;;;;;;3.32;83.33;96020.09;5044935;28;20115;-81
2023/01/17 11:11:19;;;;;;;4.82;3.40;;;;;;;3.40;82.97;96019.53;5051116;28;20036;-81
2023/01/17 11:13:47;;;;;;;4.50;3.83;;;;;;;3.27;83.26;96020.91;5070210;28;20029;-80
2023/01/17 11:16:22;;;;;;;3.97;3.45;;;;;;;3.14;84.58;96015.44;5062848;28;20035;-81
2023/01/17 11:19:11;;;;;;;6.78;4.03;;;;;;;3.22;84.17;96006.97;5060493;28;20081;-80
2023/01/17 11:21:38;;;;;;;5.25;3.60;;;;;;;3.12;84.59;96007.00;5070725;28;20056;-80
2023/01/17 11:24:19;;;;;;;7.22;3.70;;;;;;;3.34;84.17;95994.25;5070860;28;20029;-80
2023/01/17 11:26:48;;;;;;;5.05;3.35;;;;;;;3.36;83.67;95989.50;5068974;28;20028;-80
2023/01/17 11:29:25;;;;;;;7.00;3.25;;;;;;;3.29;83.90;95986.38;5106646;28;20012;-80
2023/01/17 11:31:52;;;;;;;6.38;4.05;;;;;;;3.18;84.16;95966.41;5081758;28;20031;-80
2023/01/17 11:34:25;;;;;;;4.97;3.28;;;;;;;3.28;83.88;95975.03;5060531;28;20078;-80
2023/01/17 11:37:18;;;;;;;4.82;3.65;;;;;;;3.23;83.99;95963.75;5073769;28;20066;-80
2023/01/17 11:39:46;;;;;;;5.28;3.40;;;;;;;3.11;83.47;95971.16;5066460;28;20388;-80
2023/01/17 11:42:32;;;;;;;5.47;3.75;;;;;;;3.37;83.53;95969.97;5064488;28;20036;-80
2023/01/17 11:45:22;;;;;;;4.50;3.58;;;;;;;3.23;83.42;95961.91;5067875;28;20472;-80
2023/01/17 11:47:48;;;;;;;3.60;2.95;;;;;;;3.43;82.88;95966.25;5070663;28;20060;-80
2023/01/17 11:50:25;;;;;;;5.63;3.08;;;;;;;3.53;82.48;95971.47;5052958;28;20063;-80
2023/01/17 11:52:51;;;;;;;3.70;2.38;;;;;;;3.50;82.69;95974.63;5067521;28;20074;-80
2023/01/17 11:55:19;;;;;;;6.82;2.97;;;;;;;3.62;81.93;95980.38;5069775;28;20056;-80
2023/01/17 11:57:49;;;;;;;5.43;3.00;;;;;;;3.42;81.96;95964.69;5089420;28;20039;-80
2023/01/17 12:00:27;;;;;;;4.22;2.67;;;;;;;3.44;81.54;95976.53;5076413;28;20040;-80
2023/01/17 12:03:19;;;;;;;7.13;2.95;;;;;;;3.50;81.26;95977.28;5067445;28;20046;-80
2023/01/17 12:06:19;;;;;;;8.68;2.80;;;;;;;3.53;81.30;95984.66;5055908;28;20488;-80
2023/01/17 12:09:10;;;;;;;4.40;2.20;;;;;;;3.41;79.94;95986.81;5063982;28;20450;-79
2023/01/17 12:15:04;;;;;;;3.38;2.53;;;;;;;3.40;80.84;95977.34;5067293;28;20047;-79
2023/01/17 12:17:44;;;;;;;5.40;2.90;;;;;;;3.36;80.21;95985.03;5021303;28;20076;-79
2023/01/17 12:20:37;;;;;;;6.15;2.63;;;;;;;3.56;80.99;95982.25;5071080;28;20040;-79
2023/01/17 12:23:32;;;;;;;5.30;2.28;;;;;;;3.55;80.17;95980.69;5075038;28;20078;-80
2023/01/17 12:26:18;;;;;;;3.33;2.83;;;;;;;3.64;80.37;95975.59;5033055;28;20033;-79
2023/01/17 12:29:05;;;;;;;3.72;2.42;;;;;;;3.72;80.22;95988.19;5048074;28;20033;-79
2023/01/17 12:31:35;;;;;;;9.20;2.90;;;;;;;3.72;80.36;95982.94;5051386;28;20484;-79
2023/01/17 12:34:26;;;;;;;5.75;2.72;;;;;;;3.63;80.22;95982.72;5055568;28;20054;-79
2023/01/17 12:37:04;;;;;;;5.97;2.40;;;;;;;3.66;80.63;95990.09;5063709;28;20127;-79
2023/01/17 12:39:39;;;;;;;5.40;2.70;;;;;;;3.77;80.00;95981.06;5070411;28;20029;-79
2023/01/17 12:42:13;;;;;;;3.20;2.30;;;;;;;3.66;79.86;95978.75;5067576;28;20051;-79
2023/01/17 12:45:03;;;;;;;13.75;4.88;;;;;;;3.59;79.06;95979.06;5062227;28;20115;-80
2023/01/17 12:47:31;;;;;;;7.18;3.42;;;;;;;3.78;79.44;95989.72;5084855;28;20024;-79
2023/01/17 12:50:14;;;;;;;9.88;3.97;;;;;;;3.93;79.20;95984.38;5053760;28;20052;-80
2023/01/17 12:53:02;;;;;;;9.18;5.03;;;;;;;3.55;79.68;95991.22;5077620;28;20035;-79
2023/01/17 12:55:46;;;;;;;7.90;4.03;;;;;;;4.00;79.17;95995.38;5073321;28;20040;-79
2023/01/17 12:58:19;;;;;;;11.38;4.88;;;;;;;4.07;78.74;95987.13;5063543;28;20053;-79
2023/01/17 13:00:50;;;;;;;10.10;4.30;;;;;;;4.12;78.88;95997.66;5063753;28;20045;-79
2023/01/17 13:03:26;;;;;;;11.07;4.00;;;;;;;3.95;78.32;95999.91;5063843;28;20241;-79
2023/01/17 13:05:54;;;;;;;16.83;5.43;;;;;;;3.49;77.97;96005.50;5074660;28;20087;-79
2023/01/17 13:08:25;;;;;;;16.33;7.18;;;;;;;4.06;78.53;96004.03;5060024;28;20043;-79
2023/01/17 13:11:01;;;;;;;15.23;6.28;;;;;;;4.34;77.77;95998.78;5071984;28;20077;-79
2023/01/17 13:13:28;;;;;;;16.95;6.63;;;;;;;4.40;77.70;96005.59;5067502;28;20092;-79
2023/01/17 13:16:03;;;;;;;16.65;6.85;;;;;;;4.45;76.83;96002.09;5080114;28;20478;-79
2023/01/17 13:18:32;;;;;;;15.48;6.18;;;;;;;4.39;77.41;96000.59;5064087;28;20112;-79
2023/01/17 13:21:28;;;;;;;14.15;6.43;;;;;;;4.49;77.07;96005.75;5072120;28;20037;-79
2023/01/17 13:24:06;;;;;;;;;;;;;;;4.56;77.06;96008.88;5068533;28;20079;-79
2023/01/17 13:27:09;;;;;;;9.52;5.18;;;;;;;4.50;77.67;96008.13;5052754;28;19927;-79